createdAt,value
2023-02-19T00:01:13.302Z,3.20
2023-02-19T00:03:41.154Z,2.90
2023-02-19T00:06:10.106Z,2.85
2023-02-19T00:08:38.105Z,3.30
2023-02-19T00:11:08.024Z,2.70
2023-02-19T00:13:43.425Z,3.03
2023-02-19T00:16:21.535Z,2.60
2023-02-19T00:18:48.590Z,2.65
2023-02-19T00:21:17.185Z,2.42
2023-02-19T00:23:43.973Z,2.95
2023-02-19T00:26:18.571Z,3.13
2023-02-19T00:28:46.456Z,2.53
2023-02-19T00:31:21.974Z,2.58
2023-02-19T00:33:50.874Z,2.45
2023-02-19T00:36:17.947Z,2.40
2023-02-19T00:38:44.842Z,2.27
2023-02-19T00:41:19.411Z,2.42
2023-02-19T00:43:56.088Z,2.10
2023-02-19T00:46:26.987Z,2.28
2023-02-19T00:48:54.412Z,2.25
2023-02-19T00:51:23.248Z,2.63
2023-02-19T00:53:50.062Z,2.17
2023-02-19T00:56:17.076Z,2.30
2023-02-19T00:58:44.046Z,2.53
2023-02-19T01:01:11.691Z,2.38
2023-02-19T01:03:39.779Z,2.23
2023-02-19T01:06:08.387Z,2.75
2023-02-19T01:08:35.549Z,2.30
2023-02-19T01:11:03.492Z,2.55
2023-02-19T01:13:30.260Z,3.15
2023-02-19T01:16:15.079Z,2.60
2023-02-19T01:18:42.341Z,2.95
2023-02-19T01:21:12.938Z,3.15
2023-02-19T01:23:40.100Z,2.85
2023-02-19T01:26:09.513Z,2.92
2023-02-19T01:28:36.070Z,3.43
2023-02-19T01:31:04.547Z,3.08
2023-02-19T01:36:02.774Z,2.78
2023-02-19T01:38:29.289Z,3.42
2023-02-19T01:41:00.676Z,2.87
2023-02-19T01:43:27.783Z,3.38
2023-02-19T01:45:55.258Z,3.30
2023-02-19T01:48:36.093Z,2.95
2023-02-19T01:51:11.129Z,2.80
2023-02-19T01:53:41.595Z,3.13
2023-02-19T01:56:09.388Z,3.25
2023-02-19T01:58:37.251Z,2.83
2023-02-19T02:01:06.842Z,2.30
2023-02-19T02:03:38.307Z,2.75
2023-02-19T02:06:16.994Z,2.90
2023-02-19T02:09:02.757Z,3.10
2023-02-19T02:11:29.405Z,2.70
2023-02-19T02:13:57.558Z,3.22
2023-02-19T02:16:40.734Z,3.33
2023-02-19T02:19:10.152Z,3.50
2023-02-19T02:21:53.408Z,3.13
2023-02-19T02:24:41.564Z,3.45
2023-02-19T02:27:52.188Z,3.03
2023-02-19T02:30:39.841Z,3.33
2023-02-19T02:33:15.821Z,2.83
2023-02-19T02:35:57.330Z,2.85
2023-02-19T02:38:31.537Z,2.83
2023-02-19T02:40:58.952Z,2.60
2023-02-19T02:43:25.752Z,2.28
2023-02-19T02:45:52.369Z,2.53
2023-02-19T02:48:33.628Z,2.67
2023-02-19T02:51:06.159Z,2.20
2023-02-19T02:53:58.325Z,2.10
2023-02-19T02:56:26.298Z,1.45
2023-02-19T02:58:54.935Z,2.00
2023-02-19T03:01:48.700Z,1.60
2023-02-19T03:04:36.227Z,1.40
2023-02-19T03:07:08.912Z,1.20
2023-02-19T03:09:43.159Z,1.52
2023-02-19T03:12:33.244Z,1.40
2023-02-19T03:15:25.515Z,1.48
2023-02-19T03:18:16.867Z,1.50
2023-02-19T03:20:48.732Z,1.30
2023-02-19T03:23:17.483Z,1.60
2023-02-19T03:26:03.044Z,2.00
2023-02-19T03:28:53.788Z,1.40
2023-02-19T03:31:24.574Z,1.50
2023-02-19T03:33:57.502Z,2.03
2023-02-19T03:36:29.459Z,1.75
2023-02-19T03:39:06.773Z,2.23
2023-02-19T03:41:48.432Z,1.50
2023-02-19T03:44:38.229Z,2.28
2023-02-19T03:47:10.768Z,2.35
2023-02-19T03:49:42.786Z,1.92
2023-02-19T03:52:16.729Z,2.03
2023-02-19T03:54:58.624Z,1.65
2023-02-19T03:57:33.614Z,2.00
2023-02-19T04:00:09.834Z,1.48
2023-02-19T04:02:44.517Z,1.85
2023-02-19T04:05:19.763Z,1.60
2023-02-19T04:07:49.987Z,2.10
2023-02-19T04:10:18.962Z,1.70
2023-02-19T04:12:52.679Z,1.70
2023-02-19T04:15:25.249Z,1.60
2023-02-19T04:17:58.768Z,1.80
2023-02-19T04:20:29.899Z,2.35
2023-02-19T04:22:57.685Z,2.00
2023-02-19T04:25:27.294Z,1.33
2023-02-19T04:27:53.895Z,1.70
2023-02-19T04:30:21.784Z,1.87
2023-02-19T04:32:48.490Z,1.73
2023-02-19T04:35:14.965Z,1.80
2023-02-19T04:37:41.672Z,2.10
2023-02-19T04:40:08.957Z,2.30
2023-02-19T04:42:35.452Z,1.80
2023-02-19T04:45:01.993Z,1.45
2023-02-19T04:47:28.528Z,1.98
2023-02-19T04:49:55.063Z,1.85
2023-02-19T04:52:21.532Z,1.70
2023-02-19T04:54:48.659Z,1.77
2023-02-19T04:57:15.294Z,1.80
2023-02-19T04:59:41.730Z,1.98
2023-02-19T05:02:08.709Z,1.65
2023-02-19T05:04:35.277Z,2.08
2023-02-19T05:07:01.770Z,1.90
2023-02-19T05:09:28.323Z,1.90
2023-02-19T05:11:54.830Z,2.00
2023-02-19T05:14:21.370Z,1.50
2023-02-19T05:16:47.963Z,1.50
2023-02-19T05:19:14.575Z,1.30
2023-02-19T05:21:41.069Z,1.55
2023-02-19T05:24:08.421Z,1.52
2023-02-19T05:26:35.175Z,2.03
2023-02-19T05:29:02.369Z,1.60
2023-02-19T05:31:29.044Z,1.73
2023-02-19T05:33:56.503Z,1.30
2023-02-19T05:36:23.956Z,1.42
2023-02-19T05:38:55.365Z,2.10
2023-02-19T05:41:24.756Z,1.40
2023-02-19T05:43:51.528Z,1.17
2023-02-19T05:46:20.233Z,1.13
2023-02-19T05:48:48.622Z,1.85
2023-02-19T05:51:18.797Z,1.90
2023-02-19T05:53:45.864Z,1.90
2023-02-19T05:56:32.444Z,1.83
2023-02-19T05:59:00.960Z,2.08
2023-02-19T06:01:29.446Z,2.60
2023-02-19T06:03:57.610Z,2.38
2023-02-19T06:06:25.431Z,2.75
2023-02-19T06:08:52.105Z,3.20
2023-02-19T06:11:19.390Z,2.92
2023-02-19T06:13:46.436Z,3.10
2023-02-19T06:16:13.230Z,2.70
2023-02-19T06:18:42.590Z,2.63
2023-02-19T06:21:11.959Z,3.50
2023-02-19T06:23:39.604Z,3.50
2023-02-19T06:26:09.259Z,3.53
2023-02-19T06:28:36.314Z,3.80
2023-02-19T06:31:03.773Z,3.70
2023-02-19T06:33:30.365Z,3.10
2023-02-19T06:36:02.565Z,4.00
2023-02-19T06:38:29.656Z,3.47
2023-02-19T06:41:01.118Z,3.95
2023-02-19T06:43:27.818Z,3.85
2023-02-19T06:45:54.851Z,4.00
2023-02-19T06:48:21.389Z,3.92
2023-02-19T06:50:47.910Z,4.20
2023-02-19T06:53:14.460Z,3.95
2023-02-19T06:55:41.486Z,4.75
2023-02-19T06:58:07.956Z,5.13
2023-02-19T07:00:35.128Z,4.68
2023-02-19T07:03:02.873Z,5.78
2023-02-19T07:05:31.116Z,5.13
2023-02-19T07:07:57.648Z,4.85
2023-02-19T07:10:24.096Z,4.40
2023-02-19T07:12:50.601Z,4.60
2023-02-19T07:15:17.125Z,4.00
2023-02-19T07:17:43.612Z,4.55
2023-02-19T07:20:10.393Z,4.38
2023-02-19T07:22:36.835Z,4.93
2023-02-19T07:25:03.342Z,4.75
2023-02-19T07:27:29.853Z,4.70
2023-02-19T07:29:56.424Z,4.43
2023-02-19T07:32:22.945Z,3.67
2023-02-19T07:34:49.467Z,4.23
2023-02-19T07:37:15.940Z,4.28
2023-02-19T07:39:42.534Z,4.30
2023-02-19T07:42:09.001Z,3.85
2023-02-19T07:44:35.533Z,4.50
2023-02-19T07:47:02.005Z,4.17
2023-02-19T07:49:28.972Z,4.13
2023-02-19T07:51:55.838Z,3.95
2023-02-19T07:54:22.346Z,4.15
2023-02-19T07:56:48.991Z,4.00
2023-02-19T07:59:16.186Z,4.37
2023-02-19T08:02:01.445Z,4.65
2023-02-19T08:04:27.959Z,4.90
2023-02-19T08:06:54.508Z,4.93
2023-02-19T08:09:21.017Z,5.40
2023-02-19T08:12:06.159Z,5.67
2023-02-19T08:14:32.887Z,5.18
2023-02-19T08:16:59.437Z,5.05
2023-02-19T08:19:26.027Z,4.75
2023-02-19T08:21:53.568Z,5.05
2023-02-19T08:24:20.156Z,4.90
2023-02-19T08:26:46.746Z,5.35
2023-02-19T08:29:13.288Z,4.82
2023-02-19T08:31:39.855Z,4.50
2023-02-19T08:34:06.554Z,4.68
2023-02-19T08:36:33.088Z,5.13
2023-02-19T08:38:59.789Z,6.10
2023-02-19T08:41:26.502Z,6.22
2023-02-19T08:43:53.098Z,5.32
2023-02-19T08:46:19.756Z,4.75
2023-02-19T08:48:46.292Z,4.53
2023-02-19T08:51:13.104Z,4.80
2023-02-19T08:53:40.786Z,4.47
2023-02-19T08:56:13.554Z,4.65
2023-02-19T08:58:40.113Z,4.53
2023-02-19T09:01:12.374Z,5.20
2023-02-19T09:03:39.713Z,5.90
2023-02-19T09:06:06.495Z,5.22
2023-02-19T09:08:33.104Z,5.05
2023-02-19T09:11:04.643Z,5.55
2023-02-19T09:13:31.145Z,5.10
2023-02-19T09:15:57.941Z,5.32
2023-02-19T09:18:25.766Z,5.82
2023-02-19T09:20:52.469Z,5.10
2023-02-19T09:23:19.062Z,5.47
2023-02-19T09:25:45.609Z,4.83
2023-02-19T09:28:12.254Z,5.32
2023-02-19T09:30:38.813Z,5.75
2023-02-19T09:33:06.096Z,5.65
2023-02-19T09:35:32.653Z,5.10
2023-02-19T09:38:01.905Z,6.13
2023-02-19T09:40:30.286Z,5.75
2023-02-19T09:42:57.216Z,5.43
2023-02-19T09:45:26.287Z,3.42
2023-02-19T09:47:56.002Z,1.00
2023-02-19T09:50:32.835Z,0.60
2023-02-19T09:53:03.860Z,0.43
2023-02-19T09:55:40.776Z,0.38
2023-02-19T09:58:30.657Z,0.20
2023-02-19T10:01:01.241Z,0.20
2023-02-19T10:03:39.183Z,0.23
2023-02-19T10:06:13.874Z,0.20
2023-02-19T10:08:42.016Z,0.20
2023-02-19T10:11:12.422Z,0.20
2023-02-19T10:13:51.289Z,0.20
2023-02-19T10:16:23.806Z,0.30
2023-02-19T10:18:50.652Z,0.30
2023-02-19T10:21:19.952Z,0.30
2023-02-19T10:23:53.242Z,0.30
2023-02-19T10:26:20.242Z,0.30
2023-02-19T10:28:46.741Z,0.40
2023-02-19T10:31:25.153Z,0.30
2023-02-19T10:33:56.980Z,0.75
2023-02-19T10:36:34.088Z,1.35
2023-02-19T10:39:03.282Z,0.75
2023-02-19T10:41:31.473Z,0.60
2023-02-19T10:44:00.933Z,0.60
2023-02-19T10:46:31.944Z,0.60
2023-02-19T10:49:01.891Z,0.63
2023-02-19T10:51:37.710Z,0.60
2023-02-19T10:54:17.331Z,0.50
2023-02-19T10:56:43.878Z,0.50
2023-02-19T10:59:22.493Z,0.50
2023-02-19T11:02:00.864Z,0.43
2023-02-19T11:04:33.904Z,0.43
2023-02-19T11:07:13.860Z,0.40
2023-02-19T11:09:47.939Z,0.20
2023-02-19T11:12:23.036Z,0.20
2023-02-19T11:14:49.722Z,0.35
2023-02-19T11:17:28.695Z,0.40
2023-02-19T11:20:14.141Z,0.23
2023-02-19T11:22:42.895Z,0.50
2023-02-19T11:25:16.346Z,0.30
2023-02-19T11:28:04.077Z,0.30
2023-02-19T11:30:30.539Z,0.40
2023-02-19T11:33:13.211Z,0.60
2023-02-19T11:35:40.135Z,0.60
2023-02-19T11:38:10.580Z,0.40
2023-02-19T11:40:56.969Z,0.80
2023-02-19T11:43:29.393Z,0.70
2023-02-19T11:46:20.083Z,0.80
2023-02-19T11:48:55.505Z,1.05
2023-02-19T11:52:15.569Z,0.85
2023-02-19T11:54:51.163Z,0.60
2023-02-19T11:57:56.206Z,0.57
2023-02-19T12:00:22.826Z,0.30
2023-02-19T12:02:49.694Z,0.32
2023-02-19T12:05:48.511Z,0.50
2023-02-19T12:08:41.124Z,0.20
2023-02-19T12:11:25.654Z,0.47
2023-02-19T12:14:00.895Z,0.30
2023-02-19T12:16:31.421Z,0.47
2023-02-19T12:19:58.609Z,0.30
2023-02-19T12:22:32.601Z,0.77
2023-02-19T12:25:35.840Z,0.50
2023-02-19T12:28:26.644Z,0.50
2023-02-19T12:30:59.602Z,0.30
2023-02-19T12:33:41.568Z,0.30
2023-02-19T12:36:13.990Z,0.30
2023-02-19T12:38:49.636Z,0.30
2023-02-19T12:41:35.778Z,0.30
2023-02-19T12:44:11.078Z,0.20
2023-02-19T12:46:46.749Z,0.90
2023-02-19T12:49:30.113Z,0.77
2023-02-19T12:52:03.153Z,1.65
2023-02-19T12:54:35.326Z,2.23
2023-02-19T12:57:15.631Z,2.28
2023-02-19T12:59:53.524Z,2.10
2023-02-19T13:02:26.578Z,0.80
2023-02-19T13:05:05.753Z,1.30
2023-02-19T13:08:06.396Z,1.30
2023-02-19T13:10:42.894Z,0.82
2023-02-19T13:13:19.214Z,0.45
2023-02-19T13:15:50.387Z,0.70
2023-02-19T13:18:24.194Z,0.40
2023-02-19T13:20:51.844Z,0.60
2023-02-19T13:23:49.985Z,0.50
2023-02-19T13:26:34.936Z,0.40
2023-02-19T13:29:20.099Z,0.60
2023-02-19T13:32:11.759Z,0.40
2023-02-19T13:34:59.523Z,0.33
2023-02-19T13:37:26.701Z,0.40
2023-02-19T13:39:55.598Z,0.30
2023-02-19T13:42:29.071Z,0.25
2023-02-19T13:44:58.023Z,0.25
2023-02-19T13:47:54.655Z,0.10
2023-02-19T13:50:30.846Z,0.22
2023-02-19T13:53:01.820Z,0.35
2023-02-19T13:55:44.090Z,0.20
2023-02-19T13:58:39.562Z,0.22
2023-02-19T14:01:10.766Z,0.20
2023-02-19T14:03:37.360Z,0.43
2023-02-19T14:06:06.710Z,0.10
2023-02-19T14:08:58.516Z,1.90
2023-02-19T14:11:44.001Z,0.20
2023-02-19T14:14:32.064Z,0.10
2023-02-19T14:17:08.549Z,0.20
2023-02-19T14:19:52.134Z,0.10
2023-02-19T14:22:46.515Z,0.40
2023-02-19T14:25:31.284Z,0.30
2023-02-19T14:28:30.115Z,0.10
2023-02-19T14:31:33.779Z,0.10
2023-02-19T14:34:06.927Z,0.40
2023-02-19T14:36:51.781Z,1.17
2023-02-19T14:39:37.774Z,0.30
2023-02-19T14:42:22.834Z,0.20
2023-02-19T14:45:02.240Z,0.10
2023-02-19T14:47:33.313Z,0.40
2023-02-19T14:49:59.691Z,0.80
2023-02-19T14:52:45.598Z,0.25
2023-02-19T14:55:23.446Z,0.20
2023-02-19T14:57:53.233Z,0.20
2023-02-19T15:00:22.854Z,0.20
2023-02-19T15:02:55.692Z,1.00
2023-02-19T15:05:27.548Z,0.90
2023-02-19T15:07:58.115Z,2.47
2023-02-19T15:10:28.011Z,2.88
2023-02-19T15:13:01.011Z,2.03
2023-02-19T15:15:30.336Z,1.38
2023-02-19T15:17:59.135Z,3.13
2023-02-19T15:20:29.740Z,2.17
2023-02-19T15:22:58.753Z,1.40
2023-02-19T15:25:32.893Z,0.30
2023-02-19T15:28:24.090Z,2.08
2023-02-19T15:31:05.560Z,0.30
2023-02-19T15:33:32.134Z,0.20
2023-02-19T15:36:01.768Z,0.30
2023-02-19T15:38:29.325Z,0.80
2023-02-19T15:40:58.826Z,0.60
2023-02-19T15:43:27.625Z,0.20
2023-02-19T15:46:00.339Z,0.13
2023-02-19T15:48:35.234Z,0.50
2023-02-19T15:51:09.418Z,0.47
2023-02-19T15:53:47.701Z,0.28
2023-02-19T15:56:33.192Z,0.22
2023-02-19T15:59:06.720Z,0.20
2023-02-19T16:01:36.752Z,1.92
2023-02-19T16:04:04.341Z,1.15
2023-02-19T16:06:30.694Z,2.05
2023-02-19T16:09:06.517Z,0.88
2023-02-19T16:11:40.246Z,1.73
2023-02-19T16:14:29.241Z,0.90
2023-02-19T16:16:57.240Z,0.65
2023-02-19T16:19:28.492Z,0.73
2023-02-19T16:21:55.597Z,0.70
2023-02-19T16:24:32.248Z,1.13
2023-02-19T16:26:59.244Z,1.05
2023-02-19T16:29:29.248Z,1.17
2023-02-19T16:31:59.518Z,1.92
2023-02-19T16:34:50.434Z,1.00
2023-02-19T16:37:41.168Z,0.90
2023-02-19T16:40:07.546Z,0.70
2023-02-19T16:42:34.686Z,1.10
2023-02-19T16:45:01.183Z,0.90
2023-02-19T16:47:40.426Z,1.00
2023-02-19T16:50:14.202Z,1.73
2023-02-19T16:52:52.718Z,2.63
2023-02-19T16:55:19.339Z,1.48
2023-02-19T16:57:45.749Z,1.67
2023-02-19T17:00:23.344Z,1.60
2023-02-19T17:02:54.447Z,1.40
2023-02-19T17:05:22.930Z,1.38
2023-02-19T17:07:50.067Z,1.52
2023-02-19T17:10:18.667Z,1.50
2023-02-19T17:12:45.231Z,1.88
2023-02-19T17:15:12.580Z,1.63
2023-02-19T17:17:39.214Z,2.00
2023-02-19T17:20:17.962Z,1.10
2023-02-19T17:22:44.548Z,1.10
2023-02-19T17:25:11.115Z,1.95
2023-02-19T17:27:37.542Z,1.37
2023-02-19T17:30:11.929Z,1.80
2023-02-19T17:32:38.402Z,1.80
2023-02-19T17:35:05.580Z,1.60
2023-02-19T17:37:31.961Z,2.17
2023-02-19T17:39:58.284Z,1.73
2023-02-19T17:42:25.827Z,1.90
2023-02-19T17:44:53.815Z,2.00
2023-02-19T17:47:21.310Z,2.50
2023-02-19T17:49:47.848Z,2.00
2023-02-19T17:52:17.514Z,1.60
2023-02-19T17:54:44.087Z,1.95
2023-02-19T17:57:10.549Z,1.27
2023-02-19T17:59:36.912Z,1.67
2023-02-19T18:02:03.369Z,1.63
2023-02-19T18:04:29.868Z,1.33
2023-02-19T18:06:56.266Z,1.10
2023-02-19T18:09:22.980Z,1.40
2023-02-19T18:11:49.512Z,0.70
2023-02-19T18:14:15.989Z,1.40
2023-02-19T18:16:50.219Z,1.40
2023-02-19T18:19:17.295Z,1.05
2023-02-19T18:21:43.664Z,0.90
2023-02-19T18:24:10.068Z,0.90
2023-02-19T18:26:36.575Z,0.93
2023-02-19T18:29:03.058Z,0.83
2023-02-19T18:31:32.529Z,0.70
2023-02-19T18:33:59.094Z,0.68
2023-02-19T18:36:25.433Z,1.30
2023-02-19T18:38:51.770Z,1.00
2023-02-19T18:41:20.758Z,0.50
2023-02-19T18:43:48.493Z,1.10
2023-02-19T18:46:15.217Z,0.80
2023-02-19T18:48:41.737Z,0.75
2023-02-19T18:51:12.135Z,0.55
2023-02-19T18:53:38.777Z,0.70
2023-02-19T18:56:05.534Z,0.60
2023-02-19T18:58:31.930Z,0.70
2023-02-19T19:00:59.423Z,0.70
2023-02-19T19:03:26.005Z,0.47
2023-02-19T19:05:52.680Z,0.50
2023-02-19T19:08:19.060Z,0.40
2023-02-19T19:10:45.514Z,0.40
2023-02-19T19:13:11.963Z,0.20
2023-02-19T19:15:41.233Z,0.40
2023-02-19T19:18:08.469Z,0.30
2023-02-19T19:20:34.870Z,0.38
2023-02-19T19:23:01.240Z,0.22
2023-02-19T19:25:27.649Z,0.22
2023-02-19T19:27:57.166Z,0.20
2023-02-19T19:30:23.845Z,0.40
2023-02-19T19:32:52.376Z,0.50
2023-02-19T19:35:20.100Z,0.40
2023-02-19T19:37:46.705Z,0.57
2023-02-19T19:40:13.285Z,0.88
2023-02-19T19:42:39.768Z,0.97
2023-02-19T19:45:06.783Z,0.80
2023-02-19T19:47:33.288Z,0.68
2023-02-19T19:49:59.860Z,1.08
2023-02-19T19:52:26.255Z,0.80
2023-02-19T19:54:54.138Z,1.50
2023-02-19T19:57:21.041Z,0.80
2023-02-19T19:59:51.292Z,0.63
2023-02-19T20:02:18.753Z,1.08
2023-02-19T20:04:45.202Z,0.80
2023-02-19T20:07:11.779Z,1.00
2023-02-19T20:09:38.420Z,0.88
2023-02-19T20:12:05.405Z,0.80
2023-02-19T20:14:32.061Z,0.80
2023-02-19T20:16:58.433Z,1.00
2023-02-19T20:19:24.865Z,1.00
2023-02-19T20:21:53.411Z,0.95
2023-02-19T20:24:25.985Z,0.98
2023-02-19T20:27:00.157Z,0.80
2023-02-19T20:29:29.169Z,0.98
2023-02-19T20:31:59.018Z,0.90
2023-02-19T20:34:26.284Z,1.08
2023-02-19T20:36:52.791Z,1.00
2023-02-19T20:39:20.692Z,1.08
2023-02-19T20:41:49.612Z,1.40
2023-02-19T20:44:17.358Z,1.30
2023-02-19T20:46:45.464Z,1.40
2023-02-19T20:49:12.730Z,1.55
2023-02-19T20:51:47.553Z,1.50
2023-02-19T20:54:16.567Z,1.98
2023-02-19T20:56:51.146Z,2.13
2023-02-19T20:59:19.178Z,2.47
2023-02-19T21:01:45.853Z,2.40
2023-02-19T21:04:15.665Z,2.22
2023-02-19T21:06:42.058Z,2.53
2023-02-19T21:09:08.444Z,2.70
2023-02-19T21:11:34.891Z,2.92
2023-02-19T21:14:01.350Z,3.22
2023-02-19T21:16:32.254Z,3.55
2023-02-19T21:19:00.121Z,3.53
2023-02-19T21:21:26.609Z,3.17
2023-02-19T21:23:58.107Z,3.83
2023-02-19T21:26:25.477Z,2.97
2023-02-19T21:28:52.485Z,2.70
2023-02-19T21:31:20.309Z,2.53
2023-02-19T21:33:47.092Z,2.63
2023-02-19T21:36:13.796Z,2.28
2023-02-19T21:38:40.373Z,2.28
2023-02-19T21:41:06.755Z,2.25
2023-02-19T21:43:33.122Z,2.40
2023-02-19T21:45:59.524Z,2.30
2023-02-19T21:48:26.056Z,1.70
2023-02-19T21:50:52.404Z,2.08
2023-02-19T21:53:19.328Z,1.85
2023-02-19T21:55:57.867Z,1.98
2023-02-19T21:58:25.164Z,1.70
2023-02-19T22:00:54.199Z,1.77
2023-02-19T22:03:20.768Z,1.60
2023-02-19T22:05:47.313Z,1.77
2023-02-19T22:08:15.519Z,1.80
2023-02-19T22:10:42.458Z,1.67
2023-02-19T22:13:09.861Z,1.70
2023-02-19T22:15:36.803Z,1.60
2023-02-19T22:18:03.607Z,1.55
2023-02-19T22:20:30.020Z,1.98
2023-02-19T22:22:56.394Z,2.00
2023-02-19T22:25:22.843Z,1.75
2023-02-19T22:27:49.408Z,1.70
2023-02-19T22:30:16.090Z,2.33
2023-02-19T22:32:42.613Z,1.83
2023-02-19T22:35:09.175Z,1.67
2023-02-19T22:37:35.529Z,1.75
2023-02-19T22:40:02.002Z,1.83
2023-02-19T22:42:29.398Z,2.05
2023-02-19T22:44:56.096Z,1.80
2023-02-19T22:47:22.520Z,2.33
2023-02-19T22:49:48.938Z,2.30
2023-02-19T22:52:15.497Z,2.20
2023-02-19T22:54:41.891Z,2.50
2023-02-19T22:57:08.312Z,1.77
2023-02-19T22:59:34.832Z,1.90
2023-02-19T23:02:01.290Z,2.03
2023-02-19T23:04:27.789Z,2.10
2023-02-19T23:06:54.483Z,2.08
2023-02-19T23:09:27.042Z,2.03
2023-02-19T23:12:00.342Z,2.10
2023-02-19T23:14:26.717Z,2.40
2023-02-19T23:16:53.117Z,2.58
2023-02-19T23:19:19.634Z,2.35
2023-02-19T23:21:46.638Z,2.38
2023-02-19T23:24:14.359Z,2.50
2023-02-19T23:26:49.532Z,2.47
2023-02-19T23:29:18.785Z,3.03
2023-02-19T23:31:45.254Z,3.03
2023-02-19T23:34:11.806Z,2.90
2023-02-19T23:36:45.662Z,2.73
2023-02-19T23:39:15.238Z,2.88
2023-02-19T23:41:55.365Z,4.30
2023-02-19T23:44:23.673Z,3.47
2023-02-19T23:46:51.485Z,3.25
2023-02-19T23:49:19.101Z,3.03
2023-02-19T23:51:45.844Z,3.45
2023-02-19T23:54:12.730Z,3.50
2023-02-19T23:56:39.168Z,3.47
2023-02-19T23:59:05.581Z,3.90
